createdAt,value
2023-04-09T00:01:36.158Z,11.98
2023-04-09T00:04:02.814Z,11.80
2023-04-09T00:06:31.138Z,11.81
2023-04-09T00:08:58.445Z,11.79
2023-04-09T00:11:25.071Z,11.77
2023-04-09T00:13:51.770Z,11.88
2023-04-09T00:16:18.384Z,11.88
2023-04-09T00:18:44.918Z,11.80
2023-04-09T00:21:11.523Z,11.81
2023-04-09T00:23:38.659Z,11.70
2023-04-09T00:26:05.493Z,11.62
2023-04-09T00:28:32.074Z,11.48
2023-04-09T00:30:58.616Z,11.60
2023-04-09T00:33:25.787Z,11.67
2023-04-09T00:35:52.459Z,11.69
2023-04-09T00:38:19.061Z,11.70
2023-04-09T00:40:50.387Z,11.83
2023-04-09T00:43:19.944Z,11.68
2023-04-09T00:45:46.517Z,11.61
2023-04-09T00:48:14.184Z,11.67
2023-04-09T00:50:41.994Z,11.64
2023-04-09T00:53:09.228Z,11.62
2023-04-09T00:55:36.516Z,11.54
2023-04-09T00:58:03.263Z,11.54
2023-04-09T01:00:29.846Z,11.50
2023-04-09T01:02:58.167Z,11.49
2023-04-09T01:05:49.846Z,11.44
2023-04-09T01:08:46.684Z,11.35
2023-04-09T01:11:27.342Z,11.37
2023-04-09T01:13:59.702Z,11.37
2023-04-09T01:16:27.329Z,11.31
2023-04-09T01:19:02.449Z,11.14
2023-04-09T01:21:34.340Z,11.17
2023-04-09T01:24:25.191Z,11.14
2023-04-09T01:27:03.278Z,11.15
2023-04-09T01:29:33.598Z,10.97
2023-04-09T01:32:03.505Z,10.79
2023-04-09T01:34:31.092Z,10.87
2023-04-09T01:37:01.005Z,10.72
2023-04-09T01:39:28.099Z,10.61
2023-04-09T01:41:56.272Z,10.49
2023-04-09T01:44:24.585Z,10.54
2023-04-09T01:46:51.892Z,10.56
2023-04-09T01:49:19.571Z,10.57
2023-04-09T01:51:47.486Z,10.53
2023-04-09T01:54:14.251Z,10.52
2023-04-09T01:56:45.611Z,10.52
2023-04-09T01:59:12.766Z,10.59
2023-04-09T02:01:46.491Z,10.51
2023-04-09T02:04:36.966Z,10.52
2023-04-09T02:07:09.206Z,10.51
2023-04-09T02:09:39.397Z,10.45
2023-04-09T02:12:10.709Z,10.41
2023-04-09T02:14:38.780Z,10.34
2023-04-09T02:17:06.123Z,10.32
2023-04-09T02:19:44.682Z,10.21
2023-04-09T02:22:12.423Z,10.22
2023-04-09T02:24:40.458Z,10.13
2023-04-09T02:27:07.830Z,10.01
2023-04-09T02:29:34.490Z,10.09
2023-04-09T02:32:01.354Z,10.05
2023-04-09T02:34:28.272Z,10.04
2023-04-09T02:36:54.801Z,10.13
2023-04-09T02:39:21.326Z,10.21
2023-04-09T02:41:47.920Z,10.31
2023-04-09T02:44:14.519Z,10.43
2023-04-09T02:46:41.995Z,10.36
2023-04-09T02:49:09.436Z,10.37
2023-04-09T02:51:36.284Z,10.35
2023-04-09T02:54:03.876Z,10.29
2023-04-09T02:56:30.620Z,10.18
2023-04-09T02:58:57.177Z,10.02
2023-04-09T03:01:23.814Z,10.00
2023-04-09T03:03:50.743Z,10.01
2023-04-09T03:06:18.668Z,9.90
2023-04-09T03:08:45.602Z,9.73
2023-04-09T03:11:12.152Z,9.71
2023-04-09T03:13:38.805Z,9.54
2023-04-09T03:16:06.620Z,9.46
2023-04-09T03:18:33.337Z,9.41
2023-04-09T03:20:59.948Z,9.52
2023-04-09T03:23:26.538Z,9.39
2023-04-09T03:26:06.266Z,9.37
2023-04-09T03:28:33.430Z,9.34
2023-04-09T03:31:00.149Z,9.43
2023-04-09T03:33:26.794Z,9.37
2023-04-09T03:35:53.404Z,9.38
2023-04-09T03:38:20.136Z,9.28
2023-04-09T03:40:46.763Z,9.33
2023-04-09T03:43:13.436Z,9.41
2023-04-09T03:45:40.041Z,9.48
2023-04-09T03:48:06.853Z,9.40
2023-04-09T03:50:39.405Z,9.51
2023-04-09T03:53:06.111Z,9.42
2023-04-09T03:55:32.709Z,9.28
2023-04-09T03:57:59.266Z,9.31
2023-04-09T04:00:28.503Z,9.27
2023-04-09T04:02:55.173Z,9.25
2023-04-09T04:05:25.480Z,9.28
2023-04-09T04:07:52.278Z,9.34
2023-04-09T04:10:18.870Z,9.24
2023-04-09T04:12:45.977Z,9.23
2023-04-09T04:15:12.723Z,9.25
2023-04-09T04:17:39.309Z,9.15
2023-04-09T04:20:06.533Z,9.19
2023-04-09T04:22:34.691Z,9.16
2023-04-09T04:25:01.223Z,9.31
2023-04-09T04:27:27.833Z,9.22
2023-04-09T04:29:54.412Z,9.20
2023-04-09T04:32:21.258Z,9.18
2023-04-09T04:34:50.579Z,9.13
2023-04-09T04:37:17.111Z,9.03
2023-04-09T04:39:44.136Z,8.96
2023-04-09T04:42:10.780Z,9.00
2023-04-09T04:44:37.337Z,9.09
2023-04-09T04:47:03.863Z,9.12
2023-04-09T04:49:31.616Z,9.06
2023-04-09T04:51:58.173Z,9.08
2023-04-09T04:54:24.883Z,9.04
2023-04-09T04:56:51.456Z,8.97
2023-04-09T04:59:18.125Z,8.97
2023-04-09T05:01:44.702Z,8.94
2023-04-09T05:04:11.559Z,8.94
2023-04-09T05:06:38.144Z,8.88
2023-04-09T05:09:04.689Z,8.93
2023-04-09T05:11:31.212Z,8.81
2023-04-09T05:13:57.757Z,8.73
2023-04-09T05:16:24.345Z,8.65
2023-04-09T05:18:51.324Z,8.70
2023-04-09T05:21:18.179Z,8.63
2023-04-09T05:23:44.697Z,8.56
2023-04-09T05:26:11.480Z,8.51
2023-04-09T05:28:38.726Z,8.52
2023-04-09T05:31:05.512Z,8.45
2023-04-09T05:33:37.727Z,8.48
2023-04-09T05:36:04.706Z,8.46
2023-04-09T05:38:31.392Z,8.44
2023-04-09T05:40:57.949Z,8.47
2023-04-09T05:43:24.763Z,8.39
2023-04-09T05:45:51.576Z,8.43
2023-04-09T05:48:19.697Z,8.40
2023-04-09T05:50:55.222Z,8.57
2023-04-09T05:53:22.652Z,8.69
2023-04-09T05:55:49.707Z,8.69
2023-04-09T05:58:16.252Z,8.72
2023-04-09T06:00:42.786Z,8.79
2023-04-09T06:03:09.896Z,8.88
2023-04-09T06:05:36.865Z,8.98
2023-04-09T06:08:03.516Z,9.12
2023-04-09T06:10:32.810Z,9.14
2023-04-09T06:12:59.360Z,9.15
2023-04-09T06:15:26.062Z,9.22
2023-04-09T06:17:52.751Z,9.22
2023-04-09T06:20:20.143Z,9.20
2023-04-09T06:22:46.652Z,9.12
2023-04-09T06:25:13.254Z,9.23
2023-04-09T06:27:39.821Z,9.34
2023-04-09T06:30:07.030Z,9.33
2023-04-09T06:32:37.650Z,9.45
2023-04-09T06:35:11.083Z,9.48
2023-04-09T06:37:37.712Z,9.34
2023-04-09T06:40:04.559Z,9.36
2023-04-09T06:42:31.160Z,9.48
2023-04-09T06:44:57.731Z,9.64
2023-04-09T06:47:24.361Z,9.53
2023-04-09T06:49:51.386Z,9.71
2023-04-09T06:52:17.961Z,9.80
2023-04-09T06:54:45.948Z,9.53
2023-04-09T06:57:12.566Z,9.92
2023-04-09T06:59:39.090Z,10.00
2023-04-09T07:02:06.165Z,10.03
2023-04-09T07:04:32.933Z,10.13
2023-04-09T07:07:00.147Z,10.22
2023-04-09T07:09:26.662Z,10.32
2023-04-09T07:11:53.363Z,10.44
2023-04-09T07:14:19.864Z,10.49
2023-04-09T07:16:46.625Z,10.58
2023-04-09T07:19:13.267Z,10.62
2023-04-09T07:21:39.865Z,10.71
2023-04-09T07:24:06.754Z,10.74
2023-04-09T07:26:33.460Z,10.74
2023-04-09T07:29:00.029Z,10.70
2023-04-09T07:31:27.097Z,10.62
2023-04-09T07:33:54.276Z,10.51
2023-04-09T07:36:21.256Z,10.47
2023-04-09T07:38:47.791Z,10.56
2023-04-09T07:41:14.550Z,10.72
2023-04-09T07:43:41.443Z,10.92
2023-04-09T07:46:07.997Z,11.02
2023-04-09T07:48:34.556Z,11.08
2023-04-09T07:51:01.218Z,11.16
2023-04-09T07:53:28.488Z,11.26
2023-04-09T07:55:55.321Z,11.34
2023-04-09T07:58:22.292Z,11.44
2023-04-09T08:00:49.169Z,11.56
2023-04-09T08:03:15.893Z,11.69
2023-04-09T08:05:42.618Z,11.72
2023-04-09T08:08:09.116Z,11.75
2023-04-09T08:10:35.841Z,11.76
2023-04-09T08:13:02.366Z,11.96
2023-04-09T08:15:29.030Z,12.04
2023-04-09T08:17:55.633Z,12.10
2023-04-09T08:20:22.360Z,12.20
2023-04-09T08:22:48.923Z,12.27
2023-04-09T08:25:15.465Z,12.34
2023-04-09T08:27:42.064Z,12.45
2023-04-09T08:30:09.308Z,12.50
2023-04-09T08:32:36.351Z,12.53
2023-04-09T08:35:03.029Z,12.56
2023-04-09T08:37:30.140Z,12.56
2023-04-09T08:39:56.715Z,12.56
2023-04-09T08:42:26.053Z,12.61
2023-04-09T08:44:52.965Z,12.63
2023-04-09T08:47:21.061Z,12.72
2023-04-09T08:49:50.229Z,12.91
2023-04-09T08:52:19.198Z,13.12
2023-04-09T08:54:46.992Z,13.39
2023-04-09T08:57:14.126Z,13.49
2023-04-09T08:59:40.805Z,13.60
2023-04-09T09:02:11.708Z,13.68
2023-04-09T09:04:50.372Z,13.78
2023-04-09T09:07:17.529Z,13.83
2023-04-09T09:09:58.109Z,13.88
2023-04-09T09:12:39.101Z,13.84
2023-04-09T09:15:26.942Z,13.94
2023-04-09T09:17:58.767Z,14.01
2023-04-09T09:20:27.223Z,14.13
2023-04-09T09:22:55.874Z,14.29
2023-04-09T09:25:26.781Z,14.33
2023-04-09T09:27:54.581Z,14.31
2023-04-09T09:30:27.175Z,14.43
2023-04-09T09:33:06.257Z,14.53
2023-04-09T09:35:54.650Z,14.69
2023-04-09T09:38:21.704Z,14.80
2023-04-09T09:40:50.060Z,14.90
2023-04-09T09:43:16.699Z,14.90
2023-04-09T09:45:44.435Z,15.00
2023-04-09T09:48:12.876Z,15.08
2023-04-09T09:50:43.466Z,15.19
2023-04-09T09:53:11.845Z,15.19
2023-04-09T09:55:40.538Z,15.31
2023-04-09T09:58:19.739Z,15.29
2023-04-09T10:00:48.809Z,15.33
2023-04-09T10:03:21.299Z,15.38
2023-04-09T10:05:49.373Z,15.46
2023-04-09T10:08:16.661Z,15.56
2023-04-09T10:10:43.713Z,15.63
2023-04-09T10:13:21.762Z,15.57
2023-04-09T10:15:49.071Z,15.61
2023-04-09T10:18:16.593Z,15.68
2023-04-09T10:20:52.772Z,15.66
2023-04-09T10:23:36.383Z,15.82
2023-04-09T10:26:03.297Z,16.06
2023-04-09T10:28:31.124Z,16.07
2023-04-09T10:30:59.086Z,16.14
2023-04-09T10:33:28.253Z,16.23
2023-04-09T10:35:59.746Z,16.25
2023-04-09T10:38:38.612Z,16.28
2023-04-09T10:41:13.882Z,16.31
2023-04-09T10:43:41.173Z,16.43
2023-04-09T10:46:26.710Z,16.48
2023-04-09T10:49:19.052Z,16.45
2023-04-09T10:51:51.962Z,16.49
2023-04-09T10:54:33.902Z,16.66
2023-04-09T10:57:09.236Z,16.72
2023-04-09T10:59:37.993Z,16.93
2023-04-09T11:02:21.178Z,16.97
2023-04-09T11:05:25.366Z,17.09
2023-04-09T11:08:12.365Z,17.20
2023-04-09T11:10:41.251Z,17.24
2023-04-09T11:13:12.168Z,17.35
2023-04-09T11:15:39.272Z,17.34
2023-04-09T11:18:07.747Z,17.28
2023-04-09T11:20:34.705Z,17.25
2023-04-09T11:23:02.356Z,17.39
2023-04-09T11:25:31.917Z,17.52
2023-04-09T11:27:58.838Z,17.61
2023-04-09T11:30:26.307Z,17.59
2023-04-09T11:32:53.612Z,17.76
2023-04-09T11:35:22.170Z,17.83
2023-04-09T11:37:50.285Z,17.89
2023-04-09T11:40:22.166Z,17.90
2023-04-09T11:42:51.066Z,18.48
2023-04-09T11:45:18.932Z,18.44
2023-04-09T11:47:47.293Z,18.50
2023-04-09T11:50:15.565Z,18.64
2023-04-09T11:52:43.239Z,18.87
2023-04-09T11:55:10.935Z,18.77
2023-04-09T11:57:43.421Z,18.83
2023-04-09T12:00:15.470Z,18.86
2023-04-09T12:02:47.094Z,18.98
2023-04-09T12:05:22.214Z,19.01
2023-04-09T12:07:56.448Z,19.04
2023-04-09T12:10:28.048Z,19.01
2023-04-09T12:12:54.711Z,19.22
2023-04-09T12:15:25.498Z,19.12
2023-04-09T12:17:54.891Z,19.07
2023-04-09T12:20:31.688Z,19.11
2023-04-09T12:23:00.334Z,19.04
2023-04-09T12:25:27.933Z,18.85
2023-04-09T12:27:56.129Z,18.95
2023-04-09T12:30:24.025Z,19.08
2023-04-09T12:32:50.935Z,18.97
2023-04-09T12:35:17.698Z,18.92
2023-04-09T12:37:44.796Z,18.89
2023-04-09T12:40:14.046Z,18.86
2023-04-09T12:42:42.097Z,18.73
2023-04-09T12:45:10.593Z,18.80
2023-04-09T12:47:37.818Z,18.66
2023-04-09T12:50:04.687Z,18.54
2023-04-09T12:52:31.338Z,18.65
2023-04-09T12:54:57.890Z,18.69
2023-04-09T12:57:24.505Z,18.69
2023-04-09T12:59:51.083Z,18.73
2023-04-09T13:02:17.835Z,18.80
2023-04-09T13:04:44.631Z,18.73
2023-04-09T13:07:13.246Z,18.73
2023-04-09T13:09:39.735Z,18.81
2023-04-09T13:12:06.714Z,18.74
2023-04-09T13:14:33.366Z,18.75
2023-04-09T13:17:00.024Z,18.79
2023-04-09T13:19:26.619Z,18.74
2023-04-09T13:21:53.204Z,18.70
2023-04-09T13:24:19.749Z,18.81
2023-04-09T13:26:46.380Z,18.96
2023-04-09T13:29:13.355Z,18.97
2023-04-09T13:31:39.877Z,19.04
2023-04-09T13:34:06.657Z,18.85
2023-04-09T13:36:34.508Z,18.85
2023-04-09T13:39:06.631Z,18.97
2023-04-09T13:41:33.954Z,19.06
2023-04-09T13:44:00.899Z,19.21
2023-04-09T13:46:28.246Z,19.18
2023-04-09T13:48:55.308Z,19.26
2023-04-09T13:51:22.859Z,19.43
2023-04-09T13:53:50.805Z,19.64
2023-04-09T13:56:17.364Z,19.58
2023-04-09T13:58:45.063Z,19.76
2023-04-09T14:01:12.045Z,19.85
2023-04-09T14:03:40.224Z,19.86
2023-04-09T14:06:08.734Z,19.71
2023-04-09T14:08:36.308Z,19.66
2023-04-09T14:11:03.052Z,19.63
2023-04-09T14:13:30.104Z,19.67
2023-04-09T14:15:58.603Z,19.60
2023-04-09T14:18:26.512Z,19.66
2023-04-09T14:20:53.064Z,19.65
2023-04-09T14:23:19.573Z,19.63
2023-04-09T14:25:46.138Z,19.74
2023-04-09T14:28:12.778Z,19.76
2023-04-09T14:30:39.345Z,19.87
2023-04-09T14:33:05.936Z,19.98
2023-04-09T14:35:32.963Z,19.84
2023-04-09T14:37:59.592Z,19.92
2023-04-09T14:40:26.127Z,19.96
2023-04-09T14:42:52.653Z,19.92
2023-04-09T14:45:19.183Z,19.91
2023-04-09T14:47:46.048Z,19.92
2023-04-09T14:50:12.926Z,19.98
2023-04-09T14:52:39.584Z,20.04
2023-04-09T14:55:12.161Z,20.18
2023-04-09T14:57:39.822Z,20.26
2023-04-09T15:00:08.240Z,20.18
2023-04-09T15:02:41.477Z,20.15
2023-04-09T15:05:08.846Z,20.19
2023-04-09T15:07:35.370Z,20.20
2023-04-09T15:10:01.934Z,20.18
2023-04-09T15:12:30.625Z,20.26
2023-04-09T15:14:57.449Z,20.36
2023-04-09T15:17:24.994Z,20.37
2023-04-09T15:19:55.086Z,20.57
2023-04-09T15:22:21.682Z,20.43
2023-04-09T15:24:48.207Z,20.46
2023-04-09T15:27:16.118Z,20.48
2023-04-09T15:29:43.652Z,20.54
2023-04-09T15:32:10.584Z,20.57
2023-04-09T15:34:37.215Z,20.62
2023-04-09T15:37:03.805Z,20.52
2023-04-09T15:39:32.392Z,20.52
2023-04-09T15:41:59.080Z,20.53
2023-04-09T15:44:25.915Z,20.48
2023-04-09T15:46:52.572Z,20.64
2023-04-09T15:49:19.893Z,20.61
2023-04-09T15:51:46.611Z,20.66
2023-04-09T15:54:13.312Z,20.67
2023-04-09T15:56:40.470Z,20.75
2023-04-09T15:59:08.419Z,20.71
2023-04-09T16:01:36.445Z,20.71
2023-04-09T16:04:04.452Z,20.77
2023-04-09T16:06:31.415Z,20.88
2023-04-09T16:08:57.961Z,21.00
2023-04-09T16:11:24.530Z,21.18
2023-04-09T16:13:51.115Z,21.70
2023-04-09T16:16:17.713Z,21.96
2023-04-09T16:18:44.715Z,22.33
2023-04-09T16:21:11.307Z,22.33
2023-04-09T16:23:38.511Z,22.56
2023-04-09T16:26:05.615Z,22.55
2023-04-09T16:28:32.307Z,22.44
2023-04-09T16:30:59.518Z,22.53
2023-04-09T16:33:26.277Z,22.53
2023-04-09T16:35:53.051Z,22.54
2023-04-09T16:38:19.657Z,22.59
2023-04-09T16:40:46.386Z,22.67
2023-04-09T16:43:12.968Z,22.90
2023-04-09T16:45:39.563Z,22.70
2023-04-09T16:48:11.479Z,22.45
2023-04-09T16:50:39.701Z,22.68
2023-04-09T16:53:06.590Z,22.54
2023-04-09T16:55:34.527Z,22.56
2023-04-09T16:58:01.111Z,22.13
2023-04-09T17:00:27.771Z,22.02
2023-04-09T17:02:56.036Z,22.09
2023-04-09T17:05:22.880Z,21.94
2023-04-09T17:07:49.496Z,21.79
2023-04-09T17:10:16.643Z,21.75
2023-04-09T17:12:44.364Z,21.71
2023-04-09T17:15:11.405Z,21.57
2023-04-09T17:17:38.216Z,21.53
2023-04-09T17:20:05.856Z,21.39
2023-04-09T17:22:32.443Z,21.43
2023-04-09T17:24:59.100Z,21.44
2023-04-09T17:27:25.678Z,21.21
2023-04-09T17:29:53.747Z,20.95
2023-04-09T17:32:20.432Z,21.00
2023-04-09T17:34:51.370Z,20.88
2023-04-09T17:37:18.272Z,21.04
2023-04-09T17:39:44.784Z,20.87
2023-04-09T17:42:14.197Z,20.80
2023-04-09T17:44:43.669Z,20.80
2023-04-09T17:47:12.353Z,20.68
2023-04-09T17:49:39.464Z,20.52
2023-04-09T17:52:06.248Z,20.48
2023-04-09T17:54:36.739Z,20.43
2023-04-09T17:57:04.604Z,20.32
2023-04-09T17:59:32.670Z,20.32
2023-04-09T18:01:59.364Z,20.24
2023-04-09T18:04:27.069Z,20.17
2023-04-09T18:06:54.967Z,20.09
2023-04-09T18:09:21.483Z,20.13
2023-04-09T18:11:49.655Z,20.12
2023-04-09T18:14:16.309Z,20.02
2023-04-09T18:16:42.990Z,19.97
2023-04-09T18:19:11.864Z,19.98
2023-04-09T18:21:38.767Z,19.85
2023-04-09T18:24:05.614Z,19.75
2023-04-09T18:26:33.866Z,19.72
2023-04-09T18:29:01.467Z,19.55
2023-04-09T18:31:28.488Z,19.51
2023-04-09T18:33:55.288Z,19.48
2023-04-09T18:36:21.864Z,19.31
2023-04-09T18:38:48.882Z,19.27
2023-04-09T18:41:22.690Z,19.22
2023-04-09T18:43:49.303Z,19.20
2023-04-09T18:46:15.952Z,19.17
2023-04-09T18:48:47.112Z,19.08
2023-04-09T18:51:14.618Z,18.94
2023-04-09T18:53:41.917Z,18.85
2023-04-09T18:56:08.654Z,18.72
2023-04-09T18:58:36.120Z,18.67
2023-04-09T19:01:12.169Z,18.74
2023-04-09T19:03:40.184Z,18.70
2023-04-09T19:06:14.834Z,18.57
2023-04-09T19:08:41.641Z,18.47
2023-04-09T19:11:08.186Z,18.43
2023-04-09T19:13:35.233Z,18.34
2023-04-09T19:16:02.294Z,18.28
2023-04-09T19:18:29.231Z,18.22
2023-04-09T19:20:55.882Z,18.14
2023-04-09T19:23:22.765Z,18.09
2023-04-09T19:25:55.188Z,18.04
2023-04-09T19:28:23.116Z,18.05
2023-04-09T19:30:52.681Z,17.97
2023-04-09T19:33:24.250Z,17.96
2023-04-09T19:35:52.044Z,17.91
2023-04-09T19:38:19.429Z,17.91
2023-04-09T19:40:46.472Z,17.85
2023-04-09T19:43:13.838Z,17.76
2023-04-09T19:45:41.038Z,17.67
2023-04-09T19:48:07.682Z,17.65
2023-04-09T19:50:38.991Z,17.59
2023-04-09T19:53:06.114Z,17.55
2023-04-09T19:55:35.962Z,17.53
2023-04-09T19:58:03.508Z,17.53
2023-04-09T20:00:30.621Z,17.52
2023-04-09T20:02:57.754Z,17.44
2023-04-09T20:05:25.020Z,17.37
2023-04-09T20:07:52.856Z,17.47
2023-04-09T20:10:20.003Z,17.45
2023-04-09T20:12:47.890Z,17.41
2023-04-09T20:15:15.549Z,17.28
2023-04-09T20:17:42.720Z,17.25
2023-04-09T20:20:09.577Z,17.21
2023-04-09T20:22:36.447Z,17.21
2023-04-09T20:25:03.041Z,17.17
2023-04-09T20:27:29.620Z,17.12
2023-04-09T20:29:56.710Z,17.03
2023-04-09T20:32:23.413Z,16.97
2023-04-09T20:34:50.091Z,16.90
2023-04-09T20:37:16.767Z,16.80
2023-04-09T20:39:43.497Z,16.79
2023-04-09T20:42:10.018Z,16.73
2023-04-09T20:44:36.650Z,16.69
2023-04-09T20:47:03.241Z,16.66
2023-04-09T20:49:29.866Z,16.61
2023-04-09T20:51:57.085Z,16.59
2023-04-09T20:54:23.660Z,16.56
2023-04-09T20:56:50.316Z,16.52
2023-04-09T20:59:17.256Z,16.51
2023-04-09T21:01:44.127Z,16.47
2023-04-09T21:04:11.158Z,16.47
2023-04-09T21:06:37.836Z,16.46
2023-04-09T21:09:04.412Z,16.41
2023-04-09T21:11:31.254Z,16.37
2023-04-09T21:13:59.120Z,16.33
2023-04-09T21:16:28.885Z,16.29
2023-04-09T21:18:55.817Z,16.27
2023-04-09T21:21:22.591Z,16.22
2023-04-09T21:23:49.183Z,16.17
2023-04-09T21:26:15.770Z,16.15
2023-04-09T21:28:42.313Z,16.16
2023-04-09T21:31:11.166Z,16.12
2023-04-09T21:33:39.282Z,16.12
2023-04-09T21:36:07.800Z,16.06
2023-04-09T21:38:34.704Z,16.03
2023-04-09T21:41:01.863Z,16.01
2023-04-09T21:43:29.222Z,16.01
2023-04-09T21:45:59.174Z,15.98
2023-04-09T21:48:26.530Z,15.92
2023-04-09T21:50:53.071Z,15.92
2023-04-09T21:53:19.627Z,15.91
2023-04-09T21:55:46.132Z,15.90
2023-04-09T21:58:12.765Z,15.85
2023-04-09T22:00:39.338Z,15.85
2023-04-09T22:03:06.191Z,15.81
2023-04-09T22:05:36.554Z,15.80
2023-04-09T22:08:03.405Z,15.74
2023-04-09T22:10:30.014Z,15.73
2023-04-09T22:12:56.713Z,15.64
2023-04-09T22:15:23.323Z,15.63
2023-04-09T22:17:49.940Z,15.64
2023-04-09T22:20:16.678Z,15.56
2023-04-09T22:22:43.383Z,15.52
2023-04-09T22:25:11.715Z,15.50
2023-04-09T22:27:38.427Z,15.48
2023-04-09T22:30:05.747Z,15.45
2023-04-09T22:32:33.619Z,15.39
2023-04-09T22:35:00.317Z,15.29
2023-04-09T22:37:27.864Z,15.24
2023-04-09T22:39:54.609Z,15.22
2023-04-09T22:42:21.519Z,15.18
2023-04-09T22:44:48.101Z,15.13
2023-04-09T22:47:14.627Z,15.18
2023-04-09T22:49:41.182Z,15.18
2023-04-09T22:52:08.411Z,15.08
2023-04-09T22:54:35.654Z,15.03
2023-04-09T22:57:02.315Z,15.04
2023-04-09T22:59:39.004Z,15.01
2023-04-09T23:02:06.444Z,14.96
2023-04-09T23:04:34.999Z,14.87
2023-04-09T23:07:02.479Z,14.84
2023-04-09T23:09:30.965Z,14.82
2023-04-09T23:11:57.630Z,14.79
2023-04-09T23:14:24.160Z,14.76
2023-04-09T23:16:50.911Z,14.70
2023-04-09T23:19:17.481Z,14.52
2023-04-09T23:21:44.020Z,14.50
2023-04-09T23:24:10.685Z,14.47
2023-04-09T23:26:37.525Z,14.49
2023-04-09T23:29:04.044Z,14.46
2023-04-09T23:31:30.606Z,14.48
2023-04-09T23:33:57.182Z,14.44
2023-04-09T23:36:24.361Z,14.40
2023-04-09T23:38:51.252Z,14.33
2023-04-09T23:41:17.871Z,14.29
2023-04-09T23:43:44.495Z,14.22
2023-04-09T23:46:11.255Z,14.13
2023-04-09T23:48:38.462Z,14.12
2023-04-09T23:51:05.268Z,14.10
2023-04-09T23:53:31.794Z,14.01
2023-04-09T23:55:58.634Z,13.98
2023-04-09T23:58:25.512Z,14.02
